createdAt,value
2022-08-17T00:09:58.457Z,20.8
2022-08-17T00:30:02.783Z,20.1
2022-08-17T00:40:05.330Z,20.1
2022-08-17T00:50:07.737Z,20
2022-08-17T01:00:10.206Z,19.9
2022-08-17T01:10:57.030Z,19.9
2022-08-17T01:20:14.319Z,19.8
2022-08-17T01:30:57.611Z,19.7
2022-08-17T01:40:19.021Z,19.5
2022-08-17T01:50:21.519Z,19.5
2022-08-17T02:00:23.774Z,19.2
2022-08-17T02:10:26.173Z,19.2
2022-08-17T02:30:50.247Z,19
2022-08-17T02:40:35.076Z,19
2022-08-17T02:50:34.003Z,18.8
2022-08-17T03:00:36.662Z,18.8
2022-08-17T03:10:38.751Z,18.7
2022-08-17T03:20:41.121Z,18.7
2022-08-17T03:30:42.813Z,18.6
2022-08-17T03:40:56.113Z,18.5
2022-08-17T03:50:46.982Z,18.5
2022-08-17T04:00:48.963Z,18.3
2022-08-17T04:10:50.842Z,18.6
2022-08-17T04:20:53.354Z,18.7
2022-08-17T04:30:55.342Z,18.6
2022-08-17T04:40:57.197Z,18.6
2022-08-17T04:50:58.952Z,18.8
2022-08-17T05:01:00.924Z,18.8
2022-08-17T05:11:02.633Z,19.1
2022-08-17T05:21:04.772Z,19.2
2022-08-17T05:31:06.469Z,19.3
2022-08-17T05:41:08.330Z,19.4
2022-08-17T05:51:10.837Z,19.6
2022-08-17T06:01:13.451Z,19.8
2022-08-17T06:11:15.715Z,19.9
2022-08-17T06:21:18.045Z,20.2
2022-08-17T06:31:20.459Z,20.5
2022-08-17T06:41:22.264Z,21.2
2022-08-17T06:51:24.784Z,21.8
2022-08-17T07:01:27.030Z,21.7
2022-08-17T07:11:29.363Z,21.8
2022-08-17T07:21:31.390Z,22.2
2022-08-17T07:31:33.161Z,22.2
2022-08-17T07:41:53.553Z,22.5
2022-08-17T07:51:38.132Z,22.6
2022-08-17T08:01:41.920Z,22.5
2022-08-17T08:11:44.291Z,22.9
2022-08-17T08:21:44.176Z,23.5
2022-08-17T08:31:46.112Z,23.8
2022-08-17T08:41:48.769Z,24.5
2022-08-17T08:51:50.684Z,25.2
2022-08-17T09:01:53.292Z,25.3
2022-08-17T09:12:01.684Z,25.7
2022-08-17T09:21:57.146Z,25.7
2022-08-17T09:31:59.214Z,26.1
2022-08-17T09:42:00.969Z,25.9
2022-08-17T09:52:02.681Z,25.9
2022-08-17T10:02:04.482Z,26.1
2022-08-17T10:12:06.819Z,26.1
2022-08-17T10:22:14.460Z,26.4
2022-08-17T10:32:12.020Z,25.9
2022-08-17T10:42:13.927Z,25.8
2022-08-17T10:52:16.111Z,25.5
2022-08-17T11:02:18.528Z,25.4
2022-08-17T11:12:20.855Z,25.1
2022-08-17T11:22:22.619Z,24.9
2022-08-17T11:32:24.353Z,24.5
2022-08-17T11:42:26.876Z,24.2
2022-08-17T11:42:49.229Z,24.2
2022-08-17T11:52:36.594Z,24.2
2022-08-17T12:02:38.479Z,24.3
2022-08-17T12:12:40.149Z,24.3
2022-08-17T12:22:42.421Z,24
2022-08-17T12:32:44.139Z,23.9
2022-08-17T12:42:45.851Z,24
2022-08-17T12:52:48.389Z,24.7
2022-08-17T13:02:50.799Z,25.2
2022-08-17T13:22:55.393Z,25.4
2022-08-17T13:32:57.138Z,25.9
2022-08-17T13:42:59.431Z,26.1
2022-08-17T13:53:01.740Z,26.1
2022-08-17T14:03:03.619Z,26
2022-08-17T14:13:05.716Z,26.6
2022-08-17T14:23:07.946Z,26.9
2022-08-17T14:33:10.357Z,26.3
2022-08-17T14:43:12.155Z,26.3
2022-08-17T14:53:14.224Z,26.2
2022-08-17T15:03:16.865Z,25.9
2022-08-17T15:13:18.645Z,26.3
2022-08-17T15:23:21.038Z,25.7
2022-08-17T15:33:23.612Z,25.2
2022-08-17T15:43:27.808Z,25.3
2022-08-17T15:53:27.593Z,25.3
2022-08-17T16:13:32.177Z,25.1
2022-08-17T16:23:34.735Z,24.9
2022-08-17T16:33:37.279Z,24.9
2022-08-17T16:43:39.871Z,24.8
2022-08-17T16:53:41.538Z,24.9
2022-08-17T17:03:43.978Z,24.6
2022-08-17T17:13:46.533Z,24.4
2022-08-17T17:23:49.137Z,24.4
2022-08-17T17:33:51.122Z,24
2022-08-17T17:43:52.849Z,24.1
2022-08-17T17:53:55.456Z,23.9
2022-08-17T18:03:57.546Z,23.8
2022-08-17T18:13:59.260Z,23.7
2022-08-17T18:24:01.762Z,23.6
2022-08-17T18:34:03.436Z,23.4
2022-08-17T18:44:05.728Z,23.2
2022-08-17T19:04:09.711Z,22.5
2022-08-17T19:14:12.296Z,22.4
2022-08-17T19:24:14.845Z,22.2
2022-08-17T19:34:16.535Z,21.7
2022-08-17T19:44:19.013Z,21.5
2022-08-17T19:54:21.245Z,21.3
2022-08-17T20:04:23.778Z,21.2
2022-08-17T20:14:26.180Z,21.2
2022-08-17T20:24:28.360Z,20.9
2022-08-17T20:34:30.925Z,20.8
2022-08-17T20:44:32.311Z,20.6
2022-08-17T20:54:34.362Z,20.5
2022-08-17T21:04:36.600Z,20.2
2022-08-17T21:14:38.556Z,20.1
2022-08-17T21:24:40.903Z,20
2022-08-17T21:34:43.392Z,20
2022-08-17T21:44:45.574Z,19.7
2022-08-17T21:54:48.092Z,19.8
2022-08-17T22:04:50.692Z,19.5
2022-08-17T22:14:54.043Z,19.5
2022-08-17T22:24:57.390Z,19.1
2022-08-17T22:34:56.982Z,19
2022-08-17T22:44:58.972Z,19
2022-08-17T22:55:00.766Z,18.8
2022-08-17T23:05:02.525Z,18.7
2022-08-17T23:15:04.399Z,18.8
2022-08-17T23:25:06.059Z,18.7
2022-08-17T23:35:07.934Z,18.6
2022-08-17T23:45:09.725Z,18.6
2022-08-17T23:55:11.590Z,18.5
